sensor_id;sensor_type;location;lat;lon;timestamp;P1;durP1;ratioP1;P2;durP2;ratioP2
74777;SDS011;63298;53.164;8.610;2022-11-20T00:00:45;14.30;;;8.00;;
74777;SDS011;63298;53.164;8.610;2022-11-20T00:03:11;18.02;;;8.30;;
74777;SDS011;63298;53.164;8.610;2022-11-20T00:05:37;16.40;;;7.93;;
74777;SDS011;63298;53.164;8.610;2022-11-20T00:08:03;13.52;;;7.53;;
74777;SDS011;63298;53.164;8.610;2022-11-20T00:10:29;14.23;;;6.95;;
74777;SDS011;63298;53.164;8.610;2022-11-20T00:12:54;14.30;;;7.43;;
74777;SDS011;63298;53.164;8.610;2022-11-20T00:15:19;16.70;;;7.85;;
74777;SDS011;63298;53.164;8.610;2022-11-20T00:17:45;13.23;;;7.60;;
74777;SDS011;63298;53.164;8.610;2022-11-20T00:20:11;15.55;;;7.15;;
74777;SDS011;63298;53.164;8.610;2022-11-20T00:22:39;15.60;;;7.85;;
74777;SDS011;63298;53.164;8.610;2022-11-20T00:25:05;12.57;;;7.22;;
74777;SDS011;63298;53.164;8.610;2022-11-20T00:27:30;17.15;;;7.75;;
74777;SDS011;63298;53.164;8.610;2022-11-20T00:29:56;13.00;;;7.20;;
74777;SDS011;63298;53.164;8.610;2022-11-20T00:32:21;12.93;;;7.55;;
74777;SDS011;63298;53.164;8.610;2022-11-20T00:34:47;13.05;;;7.20;;
74777;SDS011;63298;53.164;8.610;2022-11-20T00:37:12;14.23;;;7.43;;
74777;SDS011;63298;53.164;8.610;2022-11-20T00:39:38;15.02;;;7.78;;
74777;SDS011;63298;53.164;8.610;2022-11-20T00:42:03;14.95;;;7.93;;
74777;SDS011;63298;53.164;8.610;2022-11-20T00:44:29;15.23;;;8.00;;
74777;SDS011;63298;53.164;8.610;2022-11-20T00:46:54;15.93;;;8.57;;
74777;SDS011;63298;53.164;8.610;2022-11-20T00:49:20;14.50;;;7.53;;
74777;SDS011;63298;53.164;8.610;2022-11-20T00:51:46;15.68;;;7.85;;
74777;SDS011;63298;53.164;8.610;2022-11-20T00:54:11;16.40;;;7.35;;
74777;SDS011;63298;53.164;8.610;2022-11-20T00:56:37;19.02;;;8.60;;
74777;SDS011;63298;53.164;8.610;2022-11-20T00:59:02;13.38;;;6.93;;
74777;SDS011;63298;53.164;8.610;2022-11-20T01:01:28;13.45;;;7.82;;
74777;SDS011;63298;53.164;8.610;2022-11-20T01:03:55;16.65;;;8.18;;
74777;SDS011;63298;53.164;8.610;2022-11-20T01:06:26;16.50;;;7.28;;
74777;SDS011;63298;53.164;8.610;2022-11-20T01:08:55;15.48;;;7.55;;
74777;SDS011;63298;53.164;8.610;2022-11-20T01:11:24;15.73;;;7.30;;
74777;SDS011;63298;53.164;8.610;2022-11-20T01:13:51;15.52;;;7.85;;
74777;SDS011;63298;53.164;8.610;2022-11-20T01:16:22;13.55;;;7.35;;
74777;SDS011;63298;53.164;8.610;2022-11-20T01:18:51;14.25;;;7.38;;
74777;SDS011;63298;53.164;8.610;2022-11-20T01:21:22;16.88;;;7.90;;
74777;SDS011;63298;53.164;8.610;2022-11-20T01:23:52;13.70;;;6.78;;
74777;SDS011;63298;53.164;8.610;2022-11-20T01:26:19;19.48;;;7.60;;
74777;SDS011;63298;53.164;8.610;2022-11-20T01:28:46;17.35;;;8.38;;
74777;SDS011;63298;53.164;8.610;2022-11-20T01:31:14;13.48;;;7.93;;
74777;SDS011;63298;53.164;8.610;2022-11-20T01:33:45;12.57;;;7.10;;
74777;SDS011;63298;53.164;8.610;2022-11-20T01:36:12;14.00;;;7.38;;
74777;SDS011;63298;53.164;8.610;2022-11-20T01:38:38;13.48;;;7.78;;
74777;SDS011;63298;53.164;8.610;2022-11-20T01:41:04;14.45;;;7.70;;
74777;SDS011;63298;53.164;8.610;2022-11-20T01:43:30;15.82;;;7.38;;
74777;SDS011;63298;53.164;8.610;2022-11-20T01:48:48;13.70;;;7.43;;
74777;SDS011;63298;53.164;8.610;2022-11-20T01:51:17;12.98;;;7.30;;
74777;SDS011;63298;53.164;8.610;2022-11-20T01:53:57;18.58;;;7.75;;
74777;SDS011;63298;53.164;8.610;2022-11-20T01:56:28;13.70;;;7.43;;
74777;SDS011;63298;53.164;8.610;2022-11-20T01:58:56;12.65;;;7.00;;
74777;SDS011;63298;53.164;8.610;2022-11-20T02:01:25;16.63;;;8.18;;
74777;SDS011;63298;53.164;8.610;2022-11-20T02:03:50;16.85;;;8.05;;
74777;SDS011;63298;53.164;8.610;2022-11-20T02:06:20;16.38;;;7.72;;
74777;SDS011;63298;53.164;8.610;2022-11-20T02:09:05;15.07;;;6.65;;
74777;SDS011;63298;53.164;8.610;2022-11-20T02:11:31;18.27;;;7.50;;
74777;SDS011;63298;53.164;8.610;2022-11-20T02:13:57;13.90;;;7.20;;
74777;SDS011;63298;53.164;8.610;2022-11-20T02:16:28;19.52;;;7.32;;
74777;SDS011;63298;53.164;8.610;2022-11-20T02:19:02;14.90;;;7.63;;
74777;SDS011;63298;53.164;8.610;2022-11-20T02:26:35;11.48;;;7.07;;
74777;SDS011;63298;53.164;8.610;2022-11-20T02:29:06;15.63;;;7.53;;
74777;SDS011;63298;53.164;8.610;2022-11-20T02:31:35;12.73;;;7.15;;
74777;SDS011;63298;53.164;8.610;2022-11-20T02:34:03;17.42;;;8.27;;
74777;SDS011;63298;53.164;8.610;2022-11-20T02:36:28;12.52;;;7.20;;
74777;SDS011;63298;53.164;8.610;2022-11-20T02:38:58;13.20;;;7.13;;
74777;SDS011;63298;53.164;8.610;2022-11-20T02:41:30;13.00;;;6.90;;
74777;SDS011;63298;53.164;8.610;2022-11-20T02:44:00;11.35;;;6.75;;
74777;SDS011;63298;53.164;8.610;2022-11-20T02:46:26;20.85;;;7.75;;
74777;SDS011;63298;53.164;8.610;2022-11-20T02:48:51;11.45;;;6.65;;
74777;SDS011;63298;53.164;8.610;2022-11-20T02:51:17;13.52;;;6.40;;
74777;SDS011;63298;53.164;8.610;2022-11-20T02:53:42;13.15;;;7.20;;
74777;SDS011;63298;53.164;8.610;2022-11-20T02:56:07;14.35;;;7.32;;
74777;SDS011;63298;53.164;8.610;2022-11-20T02:58:33;15.57;;;7.00;;
74777;SDS011;63298;53.164;8.610;2022-11-20T03:00:59;14.45;;;6.82;;
74777;SDS011;63298;53.164;8.610;2022-11-20T03:03:25;12.00;;;6.65;;
74777;SDS011;63298;53.164;8.610;2022-11-20T03:05:50;12.75;;;6.43;;
74777;SDS011;63298;53.164;8.610;2022-11-20T03:08:16;13.27;;;6.97;;
74777;SDS011;63298;53.164;8.610;2022-11-20T03:10:41;13.10;;;6.57;;
74777;SDS011;63298;53.164;8.610;2022-11-20T03:13:07;12.90;;;6.25;;
74777;SDS011;63298;53.164;8.610;2022-11-20T03:15:33;11.18;;;6.47;;
74777;SDS011;63298;53.164;8.610;2022-11-20T03:17:58;9.65;;;5.60;;
74777;SDS011;63298;53.164;8.610;2022-11-20T03:20:23;12.05;;;5.78;;
74777;SDS011;63298;53.164;8.610;2022-11-20T03:22:49;11.40;;;6.32;;
74777;SDS011;63298;53.164;8.610;2022-11-20T03:25:15;11.48;;;6.25;;
74777;SDS011;63298;53.164;8.610;2022-11-20T03:27:40;12.00;;;6.63;;
74777;SDS011;63298;53.164;8.610;2022-11-20T03:30:06;9.60;;;6.45;;
74777;SDS011;63298;53.164;8.610;2022-11-20T03:32:33;10.20;;;5.75;;
74777;SDS011;63298;53.164;8.610;2022-11-20T03:34:58;11.23;;;6.03;;
74777;SDS011;63298;53.164;8.610;2022-11-20T03:37:24;10.77;;;5.75;;
74777;SDS011;63298;53.164;8.610;2022-11-20T03:39:50;10.07;;;5.57;;
74777;SDS011;63298;53.164;8.610;2022-11-20T03:42:16;13.63;;;6.00;;
74777;SDS011;63298;53.164;8.610;2022-11-20T03:44:43;9.45;;;5.45;;
74777;SDS011;63298;53.164;8.610;2022-11-20T03:47:09;10.68;;;5.25;;
74777;SDS011;63298;53.164;8.610;2022-11-20T03:49:35;8.85;;;5.22;;
74777;SDS011;63298;53.164;8.610;2022-11-20T03:52:01;11.82;;;6.32;;
74777;SDS011;63298;53.164;8.610;2022-11-20T03:54:28;7.90;;;4.97;;
74777;SDS011;63298;53.164;8.610;2022-11-20T03:56:54;13.65;;;6.30;;
74777;SDS011;63298;53.164;8.610;2022-11-20T03:59:20;15.45;;;5.70;;
74777;SDS011;63298;53.164;8.610;2022-11-20T04:01:47;14.20;;;5.88;;
74777;SDS011;63298;53.164;8.610;2022-11-20T04:04:13;11.38;;;5.35;;
74777;SDS011;63298;53.164;8.610;2022-11-20T04:06:39;11.55;;;5.95;;
74777;SDS011;63298;53.164;8.610;2022-11-20T04:09:05;12.10;;;6.07;;
74777;SDS011;63298;53.164;8.610;2022-11-20T04:11:33;9.20;;;5.45;;
74777;SDS011;63298;53.164;8.610;2022-11-20T04:14:02;13.32;;;6.10;;
74777;SDS011;63298;53.164;8.610;2022-11-20T04:16:31;9.60;;;5.85;;
74777;SDS011;63298;53.164;8.610;2022-11-20T04:18:59;12.20;;;5.70;;
74777;SDS011;63298;53.164;8.610;2022-11-20T04:21:25;14.40;;;5.90;;
74777;SDS011;63298;53.164;8.610;2022-11-20T04:23:54;11.18;;;5.65;;
74777;SDS011;63298;53.164;8.610;2022-11-20T04:26:21;9.70;;;5.38;;
74777;SDS011;63298;53.164;8.610;2022-11-20T04:28:51;9.65;;;5.65;;
74777;SDS011;63298;53.164;8.610;2022-11-20T04:31:18;12.63;;;6.20;;
74777;SDS011;63298;53.164;8.610;2022-11-20T04:33:47;9.38;;;5.30;;
74777;SDS011;63298;53.164;8.610;2022-11-20T04:36:18;11.68;;;5.22;;
74777;SDS011;63298;53.164;8.610;2022-11-20T04:38:45;10.60;;;4.90;;
74777;SDS011;63298;53.164;8.610;2022-11-20T04:41:16;11.35;;;5.90;;
74777;SDS011;63298;53.164;8.610;2022-11-20T04:43:50;10.05;;;5.85;;
74777;SDS011;63298;53.164;8.610;2022-11-20T04:46:17;10.57;;;5.60;;
74777;SDS011;63298;53.164;8.610;2022-11-20T04:48:44;11.57;;;6.05;;
74777;SDS011;63298;53.164;8.610;2022-11-20T04:51:10;12.25;;;5.28;;
74777;SDS011;63298;53.164;8.610;2022-11-20T04:53:35;10.77;;;5.88;;
74777;SDS011;63298;53.164;8.610;2022-11-20T04:56:05;8.32;;;5.28;;
74777;SDS011;63298;53.164;8.610;2022-11-20T04:58:35;8.88;;;5.28;;
74777;SDS011;63298;53.164;8.610;2022-11-20T05:01:09;10.52;;;5.15;;
74777;SDS011;63298;53.164;8.610;2022-11-20T05:03:36;8.85;;;5.13;;
74777;SDS011;63298;53.164;8.610;2022-11-20T05:06:03;9.55;;;5.05;;
74777;SDS011;63298;53.164;8.610;2022-11-20T05:08:30;10.80;;;5.07;;
74777;SDS011;63298;53.164;8.610;2022-11-20T05:11:03;8.52;;;5.07;;
74777;SDS011;63298;53.164;8.610;2022-11-20T05:13:29;17.90;;;5.70;;
74777;SDS011;63298;53.164;8.610;2022-11-20T05:15:55;10.10;;;5.32;;
74777;SDS011;63298;53.164;8.610;2022-11-20T05:18:25;13.57;;;5.35;;
74777;SDS011;63298;53.164;8.610;2022-11-20T05:20:54;7.85;;;5.47;;
74777;SDS011;63298;53.164;8.610;2022-11-20T05:23:20;10.40;;;5.68;;
74777;SDS011;63298;53.164;8.610;2022-11-20T05:25:48;8.18;;;4.82;;
74777;SDS011;63298;53.164;8.610;2022-11-20T05:28:17;8.95;;;5.13;;
74777;SDS011;63298;53.164;8.610;2022-11-20T05:30:43;13.23;;;5.20;;
74777;SDS011;63298;53.164;8.610;2022-11-20T05:33:08;9.70;;;5.85;;
74777;SDS011;63298;53.164;8.610;2022-11-20T05:35:34;9.65;;;5.53;;
74777;SDS011;63298;53.164;8.610;2022-11-20T05:37:59;9.23;;;5.18;;
74777;SDS011;63298;53.164;8.610;2022-11-20T05:40:25;8.38;;;4.90;;
74777;SDS011;63298;53.164;8.610;2022-11-20T05:42:50;9.23;;;5.05;;
74777;SDS011;63298;53.164;8.610;2022-11-20T05:45:16;9.85;;;5.30;;
74777;SDS011;63298;53.164;8.610;2022-11-20T05:47:41;9.95;;;5.22;;
74777;SDS011;63298;53.164;8.610;2022-11-20T05:50:07;10.23;;;5.25;;
74777;SDS011;63298;53.164;8.610;2022-11-20T05:52:32;8.13;;;4.80;;
74777;SDS011;63298;53.164;8.610;2022-11-20T05:54:58;10.05;;;4.95;;
74777;SDS011;63298;53.164;8.610;2022-11-20T05:57:24;8.90;;;5.15;;
74777;SDS011;63298;53.164;8.610;2022-11-20T05:59:50;9.38;;;5.00;;
74777;SDS011;63298;53.164;8.610;2022-11-20T06:02:15;7.03;;;4.80;;
74777;SDS011;63298;53.164;8.610;2022-11-20T06:04:41;6.82;;;4.90;;
74777;SDS011;63298;53.164;8.610;2022-11-20T06:07:06;7.97;;;4.43;;
74777;SDS011;63298;53.164;8.610;2022-11-20T06:09:31;10.38;;;4.80;;
74777;SDS011;63298;53.164;8.610;2022-11-20T06:11:57;10.13;;;5.07;;
74777;SDS011;63298;53.164;8.610;2022-11-20T06:14:22;9.27;;;5.07;;
74777;SDS011;63298;53.164;8.610;2022-11-20T06:16:48;7.30;;;4.78;;
74777;SDS011;63298;53.164;8.610;2022-11-20T06:19:13;11.02;;;5.40;;
74777;SDS011;63298;53.164;8.610;2022-11-20T06:21:39;9.85;;;5.00;;
74777;SDS011;63298;53.164;8.610;2022-11-20T06:24:04;8.45;;;4.50;;
74777;SDS011;63298;53.164;8.610;2022-11-20T06:26:30;7.90;;;4.82;;
74777;SDS011;63298;53.164;8.610;2022-11-20T06:28:56;8.43;;;4.78;;
74777;SDS011;63298;53.164;8.610;2022-11-20T06:31:22;8.60;;;5.05;;
74777;SDS011;63298;53.164;8.610;2022-11-20T06:33:49;8.70;;;5.13;;
74777;SDS011;63298;53.164;8.610;2022-11-20T06:36:16;7.50;;;4.45;;
74777;SDS011;63298;53.164;8.610;2022-11-20T06:38:43;7.47;;;4.47;;
74777;SDS011;63298;53.164;8.610;2022-11-20T06:41:13;6.93;;;4.38;;
74777;SDS011;63298;53.164;8.610;2022-11-20T06:43:44;10.45;;;4.78;;
74777;SDS011;63298;53.164;8.610;2022-11-20T06:46:11;9.73;;;4.65;;
74777;SDS011;63298;53.164;8.610;2022-11-20T06:48:38;12.35;;;5.18;;
74777;SDS011;63298;53.164;8.610;2022-11-20T06:51:04;9.38;;;5.03;;
74777;SDS011;63298;53.164;8.610;2022-11-20T06:53:32;9.57;;;5.05;;
74777;SDS011;63298;53.164;8.610;2022-11-20T06:55:57;9.70;;;5.25;;
74777;SDS011;63298;53.164;8.610;2022-11-20T06:58:23;9.55;;;5.57;;
74777;SDS011;63298;53.164;8.610;2022-11-20T07:00:51;14.35;;;6.53;;
74777;SDS011;63298;53.164;8.610;2022-11-20T07:03:17;9.27;;;5.13;;
74777;SDS011;63298;53.164;8.610;2022-11-20T07:05:42;8.75;;;4.95;;
74777;SDS011;63298;53.164;8.610;2022-11-20T07:08:08;10.45;;;5.13;;
74777;SDS011;63298;53.164;8.610;2022-11-20T07:10:35;10.65;;;4.82;;
74777;SDS011;63298;53.164;8.610;2022-11-20T07:13:01;8.48;;;5.40;;
74777;SDS011;63298;53.164;8.610;2022-11-20T07:15:27;8.88;;;5.53;;
74777;SDS011;63298;53.164;8.610;2022-11-20T07:17:53;9.80;;;5.50;;
74777;SDS011;63298;53.164;8.610;2022-11-20T07:20:18;11.77;;;4.93;;
74777;SDS011;63298;53.164;8.610;2022-11-20T07:22:44;8.10;;;4.70;;
74777;SDS011;63298;53.164;8.610;2022-11-20T07:25:10;9.52;;;5.05;;
74777;SDS011;63298;53.164;8.610;2022-11-20T07:27:35;9.20;;;5.63;;
74777;SDS011;63298;53.164;8.610;2022-11-20T07:30:02;13.07;;;6.25;;
74777;SDS011;63298;53.164;8.610;2022-11-20T07:32:28;15.32;;;6.55;;
74777;SDS011;63298;53.164;8.610;2022-11-20T07:34:54;13.32;;;6.95;;
74777;SDS011;63298;53.164;8.610;2022-11-20T07:37:19;13.10;;;7.28;;
74777;SDS011;63298;53.164;8.610;2022-11-20T07:39:45;12.10;;;6.35;;
74777;SDS011;63298;53.164;8.610;2022-11-20T07:42:10;12.48;;;7.40;;
74777;SDS011;63298;53.164;8.610;2022-11-20T07:44:37;13.52;;;7.43;;
74777;SDS011;63298;53.164;8.610;2022-11-20T07:47:03;11.85;;;6.88;;
74777;SDS011;63298;53.164;8.610;2022-11-20T07:49:28;9.75;;;6.05;;
74777;SDS011;63298;53.164;8.610;2022-11-20T07:51:54;13.85;;;6.78;;
74777;SDS011;63298;53.164;8.610;2022-11-20T07:54:20;10.32;;;6.20;;
74777;SDS011;63298;53.164;8.610;2022-11-20T07:56:47;11.77;;;6.38;;
74777;SDS011;63298;53.164;8.610;2022-11-20T07:59:12;10.20;;;5.95;;
74777;SDS011;63298;53.164;8.610;2022-11-20T08:01:38;12.65;;;6.65;;
74777;SDS011;63298;53.164;8.610;2022-11-20T08:04:04;11.45;;;6.75;;
74777;SDS011;63298;53.164;8.610;2022-11-20T08:06:30;11.32;;;6.50;;
74777;SDS011;63298;53.164;8.610;2022-11-20T08:08:56;11.52;;;6.00;;
74777;SDS011;63298;53.164;8.610;2022-11-20T08:11:22;9.68;;;5.57;;
74777;SDS011;63298;53.164;8.610;2022-11-20T08:13:48;9.25;;;5.80;;
74777;SDS011;63298;53.164;8.610;2022-11-20T08:16:13;9.13;;;5.50;;
74777;SDS011;63298;53.164;8.610;2022-11-20T08:18:38;12.10;;;5.50;;
74777;SDS011;63298;53.164;8.610;2022-11-20T08:21:04;10.40;;;5.75;;
74777;SDS011;63298;53.164;8.610;2022-11-20T08:23:30;9.07;;;5.55;;
74777;SDS011;63298;53.164;8.610;2022-11-20T08:25:55;10.52;;;6.03;;
74777;SDS011;63298;53.164;8.610;2022-11-20T08:28:21;11.57;;;5.93;;
74777;SDS011;63298;53.164;8.610;2022-11-20T08:30:48;11.70;;;6.15;;
74777;SDS011;63298;53.164;8.610;2022-11-20T08:33:14;10.30;;;6.03;;
74777;SDS011;63298;53.164;8.610;2022-11-20T08:35:40;12.85;;;6.72;;
74777;SDS011;63298;53.164;8.610;2022-11-20T08:38:05;11.73;;;6.07;;
74777;SDS011;63298;53.164;8.610;2022-11-20T08:40:32;12.38;;;6.70;;
74777;SDS011;63298;53.164;8.610;2022-11-20T08:42:58;14.00;;;6.53;;
74777;SDS011;63298;53.164;8.610;2022-11-20T08:45:23;11.45;;;6.38;;
74777;SDS011;63298;53.164;8.610;2022-11-20T08:47:49;9.95;;;6.35;;
74777;SDS011;63298;53.164;8.610;2022-11-20T08:50:15;12.43;;;7.00;;
74777;SDS011;63298;53.164;8.610;2022-11-20T08:52:41;12.25;;;6.00;;
74777;SDS011;63298;53.164;8.610;2022-11-20T08:55:07;14.18;;;7.15;;
74777;SDS011;63298;53.164;8.610;2022-11-20T08:57:34;15.35;;;6.55;;
74777;SDS011;63298;53.164;8.610;2022-11-20T09:00:00;12.07;;;6.07;;
74777;SDS011;63298;53.164;8.610;2022-11-20T09:02:26;11.32;;;6.82;;
74777;SDS011;63298;53.164;8.610;2022-11-20T09:04:52;12.02;;;6.78;;
74777;SDS011;63298;53.164;8.610;2022-11-20T09:07:17;12.05;;;6.32;;
74777;SDS011;63298;53.164;8.610;2022-11-20T09:09:42;12.05;;;6.68;;
74777;SDS011;63298;53.164;8.610;2022-11-20T09:12:08;15.57;;;7.15;;
74777;SDS011;63298;53.164;8.610;2022-11-20T09:14:34;16.05;;;7.40;;
74777;SDS011;63298;53.164;8.610;2022-11-20T09:16:59;14.70;;;7.20;;
74777;SDS011;63298;53.164;8.610;2022-11-20T09:19:24;18.67;;;7.80;;
74777;SDS011;63298;53.164;8.610;2022-11-20T09:21:50;19.67;;;8.27;;
74777;SDS011;63298;53.164;8.610;2022-11-20T09:24:16;17.35;;;7.25;;
74777;SDS011;63298;53.164;8.610;2022-11-20T09:26:42;17.30;;;8.48;;
74777;SDS011;63298;53.164;8.610;2022-11-20T09:29:07;14.73;;;6.65;;
74777;SDS011;63298;53.164;8.610;2022-11-20T09:31:33;14.82;;;6.63;;
74777;SDS011;63298;53.164;8.610;2022-11-20T09:33:58;11.00;;;6.72;;
74777;SDS011;63298;53.164;8.610;2022-11-20T09:36:24;13.25;;;6.80;;
74777;SDS011;63298;53.164;8.610;2022-11-20T09:38:49;13.05;;;7.10;;
74777;SDS011;63298;53.164;8.610;2022-11-20T09:47:34;14.00;;;7.30;;
74777;SDS011;63298;53.164;8.610;2022-11-20T09:50:10;12.77;;;7.28;;
74777;SDS011;63298;53.164;8.610;2022-11-20T09:55:47;16.42;;;7.88;;
74777;SDS011;63298;53.164;8.610;2022-11-20T09:58:59;16.90;;;8.25;;
74777;SDS011;63298;53.164;8.610;2022-11-20T10:01:20;17.85;;;6.97;;
74777;SDS011;63298;53.164;8.610;2022-11-20T10:06:44;13.75;;;7.40;;
74777;SDS011;63298;53.164;8.610;2022-11-20T10:25:14;17.35;;;7.00;;
74777;SDS011;63298;53.164;8.610;2022-11-20T10:30:38;16.08;;;7.38;;
74777;SDS011;63298;53.164;8.610;2022-11-20T10:35:40;14.65;;;7.63;;
74777;SDS011;63298;53.164;8.610;2022-11-20T10:38:12;15.13;;;7.93;;
74777;SDS011;63298;53.164;8.610;2022-11-20T10:40:46;17.00;;;7.47;;
74777;SDS011;63298;53.164;8.610;2022-11-20T10:43:18;16.27;;;8.30;;
74777;SDS011;63298;53.164;8.610;2022-11-20T10:45:58;20.17;;;7.85;;
74777;SDS011;63298;53.164;8.610;2022-11-20T10:48:28;14.52;;;8.25;;
74777;SDS011;63298;53.164;8.610;2022-11-20T10:53:54;12.68;;;6.75;;
74777;SDS011;63298;53.164;8.610;2022-11-20T10:56:38;14.10;;;7.30;;
74777;SDS011;63298;53.164;8.610;2022-11-20T11:04:49;11.30;;;6.30;;
74777;SDS011;63298;53.164;8.610;2022-11-20T11:07:27;13.55;;;6.57;;
74777;SDS011;63298;53.164;8.610;2022-11-20T11:12:25;13.43;;;6.87;;
74777;SDS011;63298;53.164;8.610;2022-11-20T11:14:56;13.02;;;6.40;;
74777;SDS011;63298;53.164;8.610;2022-11-20T11:20:00;10.50;;;6.35;;
74777;SDS011;63298;53.164;8.610;2022-11-20T11:22:32;8.85;;;5.97;;
74777;SDS011;63298;53.164;8.610;2022-11-20T11:24:59;11.88;;;6.75;;
74777;SDS011;63298;53.164;8.610;2022-11-20T11:27:26;11.65;;;6.90;;
74777;SDS011;63298;53.164;8.610;2022-11-20T11:30:01;15.50;;;7.25;;
74777;SDS011;63298;53.164;8.610;2022-11-20T11:32:38;13.90;;;7.03;;
74777;SDS011;63298;53.164;8.610;2022-11-20T11:35:05;10.70;;;6.63;;
74777;SDS011;63298;53.164;8.610;2022-11-20T11:37:43;11.63;;;6.63;;
74777;SDS011;63298;53.164;8.610;2022-11-20T11:40:08;9.82;;;6.15;;
74777;SDS011;63298;53.164;8.610;2022-11-20T11:42:41;9.32;;;5.90;;
74777;SDS011;63298;53.164;8.610;2022-11-20T11:45:11;9.48;;;5.95;;
74777;SDS011;63298;53.164;8.610;2022-11-20T11:52:49;10.02;;;5.60;;
74777;SDS011;63298;53.164;8.610;2022-11-20T11:58:19;10.07;;;5.20;;
74777;SDS011;63298;53.164;8.610;2022-11-20T12:00:57;10.00;;;5.75;;
74777;SDS011;63298;53.164;8.610;2022-11-20T12:03:28;10.45;;;6.25;;
74777;SDS011;63298;53.164;8.610;2022-11-20T12:06:06;9.23;;;5.32;;
74777;SDS011;63298;53.164;8.610;2022-11-20T12:08:50;9.98;;;5.95;;
74777;SDS011;63298;53.164;8.610;2022-11-20T12:14:45;9.10;;;5.85;;
74777;SDS011;63298;53.164;8.610;2022-11-20T12:16:58;9.48;;;5.80;;
74777;SDS011;63298;53.164;8.610;2022-11-20T12:19:26;11.32;;;6.25;;
74777;SDS011;63298;53.164;8.610;2022-11-20T12:25:32;8.50;;;5.28;;
74777;SDS011;63298;53.164;8.610;2022-11-20T12:51:09;8.95;;;4.90;;
74777;SDS011;63298;53.164;8.610;2022-11-20T13:00:15;9.90;;;4.72;;
74777;SDS011;63298;53.164;8.610;2022-11-20T13:06:14;8.40;;;5.05;;
74777;SDS011;63298;53.164;8.610;2022-11-20T13:09:10;8.15;;;4.90;;
74777;SDS011;63298;53.164;8.610;2022-11-20T13:18:33;7.78;;;5.05;;
74777;SDS011;63298;53.164;8.610;2022-11-20T13:21:23;12.63;;;6.03;;
74777;SDS011;63298;53.164;8.610;2022-11-20T13:24:26;9.20;;;5.60;;
74777;SDS011;63298;53.164;8.610;2022-11-20T13:29:59;7.15;;;4.63;;
74777;SDS011;63298;53.164;8.610;2022-11-20T13:35:37;10.98;;;5.15;;
74777;SDS011;63298;53.164;8.610;2022-11-20T13:43:39;7.57;;;5.15;;
74777;SDS011;63298;53.164;8.610;2022-11-20T13:46:34;10.90;;;5.43;;
74777;SDS011;63298;53.164;8.610;2022-11-20T13:49:29;9.65;;;5.70;;
74777;SDS011;63298;53.164;8.610;2022-11-20T13:58:26;7.38;;;4.60;;
74777;SDS011;63298;53.164;8.610;2022-11-20T14:01:17;9.90;;;4.95;;
74777;SDS011;63298;53.164;8.610;2022-11-20T14:03:44;10.35;;;5.85;;
74777;SDS011;63298;53.164;8.610;2022-11-20T14:06:15;9.55;;;5.00;;
74777;SDS011;63298;53.164;8.610;2022-11-20T14:08:51;8.77;;;5.18;;
74777;SDS011;63298;53.164;8.610;2022-11-20T14:11:17;8.45;;;4.70;;
74777;SDS011;63298;53.164;8.610;2022-11-20T14:13:56;9.70;;;5.30;;
74777;SDS011;63298;53.164;8.610;2022-11-20T14:16:29;9.57;;;5.65;;
74777;SDS011;63298;53.164;8.610;2022-11-20T14:18:57;8.82;;;5.30;;
74777;SDS011;63298;53.164;8.610;2022-11-20T14:21:42;10.95;;;4.97;;
74777;SDS011;63298;53.164;8.610;2022-11-20T14:24:10;10.45;;;5.57;;
74777;SDS011;63298;53.164;8.610;2022-11-20T14:26:37;8.40;;;4.97;;
74777;SDS011;63298;53.164;8.610;2022-11-20T14:29:11;8.20;;;4.78;;
74777;SDS011;63298;53.164;8.610;2022-11-20T14:31:53;6.82;;;4.28;;
74777;SDS011;63298;53.164;8.610;2022-11-20T14:34:27;10.00;;;5.97;;
74777;SDS011;63298;53.164;8.610;2022-11-20T14:37:05;10.65;;;5.72;;
74777;SDS011;63298;53.164;8.610;2022-11-20T14:39:35;9.10;;;5.03;;
74777;SDS011;63298;53.164;8.610;2022-11-20T14:42:03;8.10;;;4.82;;
74777;SDS011;63298;53.164;8.610;2022-11-20T14:44:40;7.30;;;4.25;;
74777;SDS011;63298;53.164;8.610;2022-11-20T14:47:08;10.00;;;5.10;;
74777;SDS011;63298;53.164;8.610;2022-11-20T14:49:37;8.55;;;5.75;;
74777;SDS011;63298;53.164;8.610;2022-11-20T14:52:12;9.52;;;5.38;;
74777;SDS011;63298;53.164;8.610;2022-11-20T14:54:45;10.52;;;5.85;;
74777;SDS011;63298;53.164;8.610;2022-11-20T14:57:22;12.82;;;6.10;;
74777;SDS011;63298;53.164;8.610;2022-11-20T14:59:48;11.20;;;5.40;;
74777;SDS011;63298;53.164;8.610;2022-11-20T15:02:13;13.85;;;6.10;;
74777;SDS011;63298;53.164;8.610;2022-11-20T15:04:56;11.30;;;6.10;;
74777;SDS011;63298;53.164;8.610;2022-11-20T15:07:28;10.75;;;6.05;;
74777;SDS011;63298;53.164;8.610;2022-11-20T15:12:31;9.65;;;5.72;;
74777;SDS011;63298;53.164;8.610;2022-11-20T15:14:58;10.95;;;6.28;;
74777;SDS011;63298;53.164;8.610;2022-11-20T15:17:25;11.98;;;6.72;;
74777;SDS011;63298;53.164;8.610;2022-11-20T15:19:50;12.38;;;6.57;;
74777;SDS011;63298;53.164;8.610;2022-11-20T15:22:17;10.20;;;5.55;;
74777;SDS011;63298;53.164;8.610;2022-11-20T15:24:42;9.48;;;5.55;;
74777;SDS011;63298;53.164;8.610;2022-11-20T15:27:08;11.18;;;5.53;;
74777;SDS011;63298;53.164;8.610;2022-11-20T15:29:34;10.75;;;5.88;;
74777;SDS011;63298;53.164;8.610;2022-11-20T15:31:59;11.73;;;5.90;;
74777;SDS011;63298;53.164;8.610;2022-11-20T15:34:26;10.73;;;5.38;;
74777;SDS011;63298;53.164;8.610;2022-11-20T15:36:52;8.93;;;6.05;;
74777;SDS011;63298;53.164;8.610;2022-11-20T15:39:17;12.40;;;6.77;;
74777;SDS011;63298;53.164;8.610;2022-11-20T15:41:42;13.33;;;6.40;;
74777;SDS011;63298;53.164;8.610;2022-11-20T15:44:07;15.20;;;7.03;;
74777;SDS011;63298;53.164;8.610;2022-11-20T15:46:35;17.93;;;6.60;;
74777;SDS011;63298;53.164;8.610;2022-11-20T15:49:03;16.92;;;7.90;;
74777;SDS011;63298;53.164;8.610;2022-11-20T15:53:58;13.50;;;7.35;;
74777;SDS011;63298;53.164;8.610;2022-11-20T15:56:23;10.82;;;6.10;;
74777;SDS011;63298;53.164;8.610;2022-11-20T15:58:49;11.60;;;6.22;;
74777;SDS011;63298;53.164;8.610;2022-11-20T16:01:15;11.52;;;6.40;;
74777;SDS011;63298;53.164;8.610;2022-11-20T16:03:43;10.02;;;6.40;;
74777;SDS011;63298;53.164;8.610;2022-11-20T16:06:08;14.55;;;6.72;;
74777;SDS011;63298;53.164;8.610;2022-11-20T16:08:34;11.27;;;6.47;;
74777;SDS011;63298;53.164;8.610;2022-11-20T16:10:59;10.32;;;5.53;;
74777;SDS011;63298;53.164;8.610;2022-11-20T16:13:25;12.95;;;6.55;;
74777;SDS011;63298;53.164;8.610;2022-11-20T16:15:51;14.35;;;6.07;;
74777;SDS011;63298;53.164;8.610;2022-11-20T16:20:47;11.65;;;6.22;;
74777;SDS011;63298;53.164;8.610;2022-11-20T16:25:42;7.68;;;4.75;;
74777;SDS011;63298;53.164;8.610;2022-11-20T16:28:08;11.20;;;6.30;;
74777;SDS011;63298;53.164;8.610;2022-11-20T16:30:33;13.95;;;6.38;;
74777;SDS011;63298;53.164;8.610;2022-11-20T16:32:59;11.02;;;5.80;;
74777;SDS011;63298;53.164;8.610;2022-11-20T16:35:31;11.38;;;6.05;;
74777;SDS011;63298;53.164;8.610;2022-11-20T16:37:57;11.15;;;6.20;;
74777;SDS011;63298;53.164;8.610;2022-11-20T16:40:23;9.90;;;6.15;;
74777;SDS011;63298;53.164;8.610;2022-11-20T16:42:49;11.48;;;5.75;;
74777;SDS011;63298;53.164;8.610;2022-11-20T16:45:15;12.18;;;6.65;;
74777;SDS011;63298;53.164;8.610;2022-11-20T16:47:41;16.25;;;8.13;;
74777;SDS011;63298;53.164;8.610;2022-11-20T16:50:07;15.73;;;6.75;;
74777;SDS011;63298;53.164;8.610;2022-11-20T16:52:33;14.65;;;7.22;;
74777;SDS011;63298;53.164;8.610;2022-11-20T16:54:58;11.98;;;6.60;;
74777;SDS011;63298;53.164;8.610;2022-11-20T16:57:23;12.55;;;6.20;;
74777;SDS011;63298;53.164;8.610;2022-11-20T16:59:51;12.52;;;6.47;;
74777;SDS011;63298;53.164;8.610;2022-11-20T17:02:16;10.90;;;6.03;;